sensor_id;sensor_type;location;lat;lon;timestamp;temperature;humidity
32753;DHT22;19121;52.428;10.816;2023-03-31T00:00:27;20.00;45.80
32753;DHT22;19121;52.428;10.816;2023-03-31T00:02:53;20.00;45.80
32753;DHT22;19121;52.428;10.816;2023-03-31T00:05:20;20.00;45.80
32753;DHT22;19121;52.428;10.816;2023-03-31T00:07:52;20.00;45.80
32753;DHT22;19121;52.428;10.816;2023-03-31T00:10:18;20.00;45.80
32753;DHT22;19121;52.428;10.816;2023-03-31T00:12:43;20.00;45.80
32753;DHT22;19121;52.428;10.816;2023-03-31T00:15:10;20.00;45.80
32753;DHT22;19121;52.428;10.816;2023-03-31T00:17:35;20.00;45.80
32753;DHT22;19121;52.428;10.816;2023-03-31T00:20:00;19.90;45.80
32753;DHT22;19121;52.428;10.816;2023-03-31T00:22:36;20.00;45.90
32753;DHT22;19121;52.428;10.816;2023-03-31T00:25:03;20.00;45.90
32753;DHT22;19121;52.428;10.816;2023-03-31T00:27:29;19.90;45.80
32753;DHT22;19121;52.428;10.816;2023-03-31T00:29:54;19.90;45.80
32753;DHT22;19121;52.428;10.816;2023-03-31T00:32:19;19.90;45.80
32753;DHT22;19121;52.428;10.816;2023-03-31T00:34:45;19.90;45.80
32753;DHT22;19121;52.428;10.816;2023-03-31T00:37:10;19.90;45.80
32753;DHT22;19121;52.428;10.816;2023-03-31T00:39:40;19.90;45.80
32753;DHT22;19121;52.428;10.816;2023-03-31T00:42:08;19.90;45.90
32753;DHT22;19121;52.428;10.816;2023-03-31T00:45:23;19.90;45.80
32753;DHT22;19121;52.428;10.816;2023-03-31T00:47:22;19.90;45.90
32753;DHT22;19121;52.428;10.816;2023-03-31T00:49:49;19.80;45.80
32753;DHT22;19121;52.428;10.816;2023-03-31T00:52:20;19.90;45.90
32753;DHT22;19121;52.428;10.816;2023-03-31T00:54:47;19.90;45.90
32753;DHT22;19121;52.428;10.816;2023-03-31T00:57:14;19.80;45.90
32753;DHT22;19121;52.428;10.816;2023-03-31T00:59:41;19.90;46.00
32753;DHT22;19121;52.428;10.816;2023-03-31T01:02:08;19.80;45.90
32753;DHT22;19121;52.428;10.816;2023-03-31T01:04:34;19.90;46.00
32753;DHT22;19121;52.428;10.816;2023-03-31T01:07:24;19.90;46.00
32753;DHT22;19121;52.428;10.816;2023-03-31T01:09:48;19.80;46.00
32753;DHT22;19121;52.428;10.816;2023-03-31T01:12:14;19.80;45.90
32753;DHT22;19121;52.428;10.816;2023-03-31T01:14:41;19.80;46.00
32753;DHT22;19121;52.428;10.816;2023-03-31T01:17:06;19.80;46.60
32753;DHT22;19121;52.428;10.816;2023-03-31T01:19:40;19.80;46.00
32753;DHT22;19121;52.428;10.816;2023-03-31T01:27:42;19.80;46.00
32753;DHT22;19121;52.428;10.816;2023-03-31T01:30:20;19.80;46.00
32753;DHT22;19121;52.428;10.816;2023-03-31T01:33:03;19.80;46.00
32753;DHT22;19121;52.428;10.816;2023-03-31T01:43:40;19.70;46.00
32753;DHT22;19121;52.428;10.816;2023-03-31T01:48:43;19.70;46.00
32753;DHT22;19121;52.428;10.816;2023-03-31T01:56:31;19.70;46.10
32753;DHT22;19121;52.428;10.816;2023-03-31T01:59:02;19.70;46.10
32753;DHT22;19121;52.428;10.816;2023-03-31T02:04:37;19.70;46.10
32753;DHT22;19121;52.428;10.816;2023-03-31T02:07:11;19.70;46.00
32753;DHT22;19121;52.428;10.816;2023-03-31T02:09:40;19.70;46.00
32753;DHT22;19121;52.428;10.816;2023-03-31T02:12:07;19.70;46.10
32753;DHT22;19121;52.428;10.816;2023-03-31T02:14:33;19.70;46.10
32753;DHT22;19121;52.428;10.816;2023-03-31T02:17:01;19.70;46.10
32753;DHT22;19121;52.428;10.816;2023-03-31T02:19:29;19.70;46.10
32753;DHT22;19121;52.428;10.816;2023-03-31T02:21:56;19.70;46.10
32753;DHT22;19121;52.428;10.816;2023-03-31T02:24:23;19.70;46.10
32753;DHT22;19121;52.428;10.816;2023-03-31T02:26:58;19.70;46.10
32753;DHT22;19121;52.428;10.816;2023-03-31T02:29:25;19.70;46.10
32753;DHT22;19121;52.428;10.816;2023-03-31T02:34:16;19.80;46.00
32753;DHT22;19121;52.428;10.816;2023-03-31T02:36:42;19.80;46.00
32753;DHT22;19121;52.428;10.816;2023-03-31T02:39:08;19.80;46.00
32753;DHT22;19121;52.428;10.816;2023-03-31T02:41:34;19.80;46.00
32753;DHT22;19121;52.428;10.816;2023-03-31T02:44:00;19.80;46.00
32753;DHT22;19121;52.428;10.816;2023-03-31T02:46:26;19.80;46.00
32753;DHT22;19121;52.428;10.816;2023-03-31T02:48:56;19.80;46.00
32753;DHT22;19121;52.428;10.816;2023-03-31T02:54:12;19.80;46.00
32753;DHT22;19121;52.428;10.816;2023-03-31T02:56:50;19.80;46.00
32753;DHT22;19121;52.428;10.816;2023-03-31T03:07:22;19.90;46.00
32753;DHT22;19121;52.428;10.816;2023-03-31T03:09:54;19.90;46.00
32753;DHT22;19121;52.428;10.816;2023-03-31T03:12:24;19.80;46.00
32753;DHT22;19121;52.428;10.816;2023-03-31T03:15:01;19.80;46.00
32753;DHT22;19121;52.428;10.816;2023-03-31T03:19:53;19.80;46.00
32753;DHT22;19121;52.428;10.816;2023-03-31T03:22:19;19.80;46.00
32753;DHT22;19121;52.428;10.816;2023-03-31T03:24:45;19.80;46.00
32753;DHT22;19121;52.428;10.816;2023-03-31T03:27:10;19.90;46.10
32753;DHT22;19121;52.428;10.816;2023-03-31T03:29:36;19.80;46.00
32753;DHT22;19121;52.428;10.816;2023-03-31T03:32:01;19.90;46.10
32753;DHT22;19121;52.428;10.816;2023-03-31T03:34:26;19.80;46.00
32753;DHT22;19121;52.428;10.816;2023-03-31T03:36:52;19.90;46.00
32753;DHT22;19121;52.428;10.816;2023-03-31T03:39:17;19.80;46.00
32753;DHT22;19121;52.428;10.816;2023-03-31T03:41:43;19.80;46.00
32753;DHT22;19121;52.428;10.816;2023-03-31T03:44:08;19.80;46.00
32753;DHT22;19121;52.428;10.816;2023-03-31T03:46:34;19.80;46.00
32753;DHT22;19121;52.428;10.816;2023-03-31T03:48:59;19.80;46.00
32753;DHT22;19121;52.428;10.816;2023-03-31T03:51:25;19.80;46.00
32753;DHT22;19121;52.428;10.816;2023-03-31T03:53:50;19.80;46.00
32753;DHT22;19121;52.428;10.816;2023-03-31T03:56:15;19.80;46.10
32753;DHT22;19121;52.428;10.816;2023-03-31T03:58:41;19.80;46.00
32753;DHT22;19121;52.428;10.816;2023-03-31T04:01:06;19.80;46.10
32753;DHT22;19121;52.428;10.816;2023-03-31T04:03:32;19.80;46.00
32753;DHT22;19121;52.428;10.816;2023-03-31T04:05:57;19.80;46.10
32753;DHT22;19121;52.428;10.816;2023-03-31T04:08:22;19.80;46.10
32753;DHT22;19121;52.428;10.816;2023-03-31T04:10:48;19.80;46.10
32753;DHT22;19121;52.428;10.816;2023-03-31T04:13:15;19.80;46.10
32753;DHT22;19121;52.428;10.816;2023-03-31T04:15:41;19.80;46.10
32753;DHT22;19121;52.428;10.816;2023-03-31T04:18:07;19.80;46.10
32753;DHT22;19121;52.428;10.816;2023-03-31T04:20:37;19.80;46.10
32753;DHT22;19121;52.428;10.816;2023-03-31T04:23:03;19.70;46.10
32753;DHT22;19121;52.428;10.816;2023-03-31T04:25:30;19.80;46.10
32753;DHT22;19121;52.428;10.816;2023-03-31T04:27:55;19.80;46.10
32753;DHT22;19121;52.428;10.816;2023-03-31T04:30:22;19.70;46.10
32753;DHT22;19121;52.428;10.816;2023-03-31T04:32:52;19.70;46.10
32753;DHT22;19121;52.428;10.816;2023-03-31T04:35:19;19.80;46.20
32753;DHT22;19121;52.428;10.816;2023-03-31T04:37:47;19.70;46.10
32753;DHT22;19121;52.428;10.816;2023-03-31T04:40:13;19.80;46.20
32753;DHT22;19121;52.428;10.816;2023-03-31T04:42:41;19.70;46.10
32753;DHT22;19121;52.428;10.816;2023-03-31T04:45:06;19.70;46.10
32753;DHT22;19121;52.428;10.816;2023-03-31T04:47:32;19.70;46.10
32753;DHT22;19121;52.428;10.816;2023-03-31T04:49:57;19.70;46.10
32753;DHT22;19121;52.428;10.816;2023-03-31T04:52:22;19.70;46.10
32753;DHT22;19121;52.428;10.816;2023-03-31T04:54:48;19.70;46.20
32753;DHT22;19121;52.428;10.816;2023-03-31T04:57:13;19.70;46.10
32753;DHT22;19121;52.428;10.816;2023-03-31T04:59:39;19.70;46.10
32753;DHT22;19121;52.428;10.816;2023-03-31T05:02:04;19.70;46.10
32753;DHT22;19121;52.428;10.816;2023-03-31T05:04:29;19.70;46.10
32753;DHT22;19121;52.428;10.816;2023-03-31T05:06:55;19.70;46.10
32753;DHT22;19121;52.428;10.816;2023-03-31T05:09:21;19.70;46.10
32753;DHT22;19121;52.428;10.816;2023-03-31T05:11:46;19.70;46.10
32753;DHT22;19121;52.428;10.816;2023-03-31T05:14:12;19.70;46.10
32753;DHT22;19121;52.428;10.816;2023-03-31T05:16:37;19.70;46.10
32753;DHT22;19121;52.428;10.816;2023-03-31T05:19:03;19.70;46.10
32753;DHT22;19121;52.428;10.816;2023-03-31T05:21:28;19.70;46.10
32753;DHT22;19121;52.428;10.816;2023-03-31T05:23:55;19.70;46.10
32753;DHT22;19121;52.428;10.816;2023-03-31T05:26:20;19.70;46.10
32753;DHT22;19121;52.428;10.816;2023-03-31T05:28:49;19.70;46.10
32753;DHT22;19121;52.428;10.816;2023-03-31T05:31:14;19.70;46.20
32753;DHT22;19121;52.428;10.816;2023-03-31T05:33:40;19.70;46.20
32753;DHT22;19121;52.428;10.816;2023-03-31T05:36:10;19.70;46.10
32753;DHT22;19121;52.428;10.816;2023-03-31T05:38:35;19.70;46.20
32753;DHT22;19121;52.428;10.816;2023-03-31T05:41:01;19.70;46.10
32753;DHT22;19121;52.428;10.816;2023-03-31T05:43:26;19.70;46.10
32753;DHT22;19121;52.428;10.816;2023-03-31T05:45:52;19.70;46.20
32753;DHT22;19121;52.428;10.816;2023-03-31T05:48:17;19.70;46.20
32753;DHT22;19121;52.428;10.816;2023-03-31T05:50:42;19.70;46.20
32753;DHT22;19121;52.428;10.816;2023-03-31T05:53:08;19.80;46.20
32753;DHT22;19121;52.428;10.816;2023-03-31T05:55:37;19.80;46.20
32753;DHT22;19121;52.428;10.816;2023-03-31T05:58:02;19.80;46.30
32753;DHT22;19121;52.428;10.816;2023-03-31T06:00:28;19.80;46.30
32753;DHT22;19121;52.428;10.816;2023-03-31T06:02:53;19.80;46.30
32753;DHT22;19121;52.428;10.816;2023-03-31T06:05:18;19.80;46.30
32753;DHT22;19121;52.428;10.816;2023-03-31T06:07:44;19.80;46.30
32753;DHT22;19121;52.428;10.816;2023-03-31T06:10:09;19.80;46.30
32753;DHT22;19121;52.428;10.816;2023-03-31T06:12:35;19.80;46.30
32753;DHT22;19121;52.428;10.816;2023-03-31T06:15:01;19.80;46.30
32753;DHT22;19121;52.428;10.816;2023-03-31T06:17:27;19.90;46.40
32753;DHT22;19121;52.428;10.816;2023-03-31T06:19:52;19.90;46.40
32753;DHT22;19121;52.428;10.816;2023-03-31T06:22:17;19.90;46.40
32753;DHT22;19121;52.428;10.816;2023-03-31T06:24:43;19.90;46.50
32753;DHT22;19121;52.428;10.816;2023-03-31T06:27:08;19.90;46.50
32753;DHT22;19121;52.428;10.816;2023-03-31T06:29:34;19.90;46.60
32753;DHT22;19121;52.428;10.816;2023-03-31T06:31:59;19.90;46.60
32753;DHT22;19121;52.428;10.816;2023-03-31T06:34:25;19.90;46.60
32753;DHT22;19121;52.428;10.816;2023-03-31T06:36:51;19.90;46.60
32753;DHT22;19121;52.428;10.816;2023-03-31T06:39:17;19.90;46.60
32753;DHT22;19121;52.428;10.816;2023-03-31T06:41:43;19.90;46.70
32753;DHT22;19121;52.428;10.816;2023-03-31T06:44:08;19.90;46.70
32753;DHT22;19121;52.428;10.816;2023-03-31T06:46:34;19.90;46.70
32753;DHT22;19121;52.428;10.816;2023-03-31T06:48:59;19.90;46.80
32753;DHT22;19121;52.428;10.816;2023-03-31T06:51:25;19.90;46.80
32753;DHT22;19121;52.428;10.816;2023-03-31T06:53:50;19.90;46.80
32753;DHT22;19121;52.428;10.816;2023-03-31T06:56:15;19.90;47.00
32753;DHT22;19121;52.428;10.816;2023-03-31T06:58:41;19.90;47.10
32753;DHT22;19121;52.428;10.816;2023-03-31T07:01:06;19.90;47.10
32753;DHT22;19121;52.428;10.816;2023-03-31T07:03:32;19.90;47.10
32753;DHT22;19121;52.428;10.816;2023-03-31T07:05:57;19.90;47.10
32753;DHT22;19121;52.428;10.816;2023-03-31T07:08:23;19.90;47.20
32753;DHT22;19121;52.428;10.816;2023-03-31T07:10:51;19.90;47.10
32753;DHT22;19121;52.428;10.816;2023-03-31T07:13:17;20.00;47.20
32753;DHT22;19121;52.428;10.816;2023-03-31T07:15:43;20.00;47.20
32753;DHT22;19121;52.428;10.816;2023-03-31T07:18:09;19.90;47.20
32753;DHT22;19121;52.428;10.816;2023-03-31T07:20:34;20.00;47.30
32753;DHT22;19121;52.428;10.816;2023-03-31T07:23:01;20.00;47.30
32753;DHT22;19121;52.428;10.816;2023-03-31T07:25:27;20.00;47.30
32753;DHT22;19121;52.428;10.816;2023-03-31T07:27:52;20.00;47.30
32753;DHT22;19121;52.428;10.816;2023-03-31T07:30:18;20.00;47.40
32753;DHT22;19121;52.428;10.816;2023-03-31T07:32:50;20.10;47.50
32753;DHT22;19121;52.428;10.816;2023-03-31T07:35:16;20.10;47.50
32753;DHT22;19121;52.428;10.816;2023-03-31T07:37:43;20.10;47.50
32753;DHT22;19121;52.428;10.816;2023-03-31T07:40:10;20.10;47.50
32753;DHT22;19121;52.428;10.816;2023-03-31T07:42:36;20.10;47.50
32753;DHT22;19121;52.428;10.816;2023-03-31T07:45:01;20.10;47.50
32753;DHT22;19121;52.428;10.816;2023-03-31T07:47:30;20.10;47.50
32753;DHT22;19121;52.428;10.816;2023-03-31T07:49:55;20.10;47.50
32753;DHT22;19121;52.428;10.816;2023-03-31T07:52:21;20.10;47.40
32753;DHT22;19121;52.428;10.816;2023-03-31T07:54:47;20.10;47.40
32753;DHT22;19121;52.428;10.816;2023-03-31T07:57:13;20.10;47.40
32753;DHT22;19121;52.428;10.816;2023-03-31T07:59:40;20.20;47.50
32753;DHT22;19121;52.428;10.816;2023-03-31T08:02:06;20.10;47.50
32753;DHT22;19121;52.428;10.816;2023-03-31T08:04:31;20.10;47.40
32753;DHT22;19121;52.428;10.816;2023-03-31T08:06:57;20.10;47.50
32753;DHT22;19121;52.428;10.816;2023-03-31T08:09:22;20.20;47.60
32753;DHT22;19121;52.428;10.816;2023-03-31T08:11:48;20.20;47.50
32753;DHT22;19121;52.428;10.816;2023-03-31T08:14:13;20.20;47.50
32753;DHT22;19121;52.428;10.816;2023-03-31T08:16:39;20.20;47.50
32753;DHT22;19121;52.428;10.816;2023-03-31T08:19:05;20.20;47.60
32753;DHT22;19121;52.428;10.816;2023-03-31T08:21:30;20.20;47.60
32753;DHT22;19121;52.428;10.816;2023-03-31T08:23:56;20.20;47.60
32753;DHT22;19121;52.428;10.816;2023-03-31T08:26:21;20.20;47.60
32753;DHT22;19121;52.428;10.816;2023-03-31T08:28:48;20.20;47.60
32753;DHT22;19121;52.428;10.816;2023-03-31T08:31:14;20.20;47.60
32753;DHT22;19121;52.428;10.816;2023-03-31T08:33:41;20.20;47.70
32753;DHT22;19121;52.428;10.816;2023-03-31T08:36:07;20.20;47.60
32753;DHT22;19121;52.428;10.816;2023-03-31T08:38:35;20.20;47.60
32753;DHT22;19121;52.428;10.816;2023-03-31T08:41:02;20.20;47.70
32753;DHT22;19121;52.428;10.816;2023-03-31T08:43:29;20.20;47.80
32753;DHT22;19121;52.428;10.816;2023-03-31T08:45:56;20.20;47.70
32753;DHT22;19121;52.428;10.816;2023-03-31T08:48:26;20.30;47.70
32753;DHT22;19121;52.428;10.816;2023-03-31T08:50:55;20.30;47.70
32753;DHT22;19121;52.428;10.816;2023-03-31T08:53:24;20.30;47.70
32753;DHT22;19121;52.428;10.816;2023-03-31T08:55:51;20.30;47.70
32753;DHT22;19121;52.428;10.816;2023-03-31T09:03:30;20.30;47.70
32753;DHT22;19121;52.428;10.816;2023-03-31T09:06:01;20.30;47.70
32753;DHT22;19121;52.428;10.816;2023-03-31T09:08:38;20.40;47.80
32753;DHT22;19121;52.428;10.816;2023-03-31T09:11:19;20.30;48.40
32753;DHT22;19121;52.428;10.816;2023-03-31T09:14:12;20.30;47.90
32753;DHT22;19121;52.428;10.816;2023-03-31T09:19:29;20.40;48.00
32753;DHT22;19121;52.428;10.816;2023-03-31T09:21:56;20.40;48.00
32753;DHT22;19121;52.428;10.816;2023-03-31T09:24:35;20.40;48.00
32753;DHT22;19121;52.428;10.816;2023-03-31T09:27:06;20.30;47.90
32753;DHT22;19121;52.428;10.816;2023-03-31T09:32:16;20.40;48.00
32753;DHT22;19121;52.428;10.816;2023-03-31T09:34:42;20.40;48.00
32753;DHT22;19121;52.428;10.816;2023-03-31T09:37:09;20.40;48.00
32753;DHT22;19121;52.428;10.816;2023-03-31T09:39:35;20.40;48.00
32753;DHT22;19121;52.428;10.816;2023-03-31T09:42:00;20.40;48.00
32753;DHT22;19121;52.428;10.816;2023-03-31T09:44:27;20.40;48.00
32753;DHT22;19121;52.428;10.816;2023-03-31T09:46:56;20.40;48.00
32753;DHT22;19121;52.428;10.816;2023-03-31T09:49:27;20.40;48.00
32753;DHT22;19121;52.428;10.816;2023-03-31T09:51:58;20.40;48.00
32753;DHT22;19121;52.428;10.816;2023-03-31T09:54:26;20.40;48.00
32753;DHT22;19121;52.428;10.816;2023-03-31T09:56:54;20.40;48.00
32753;DHT22;19121;52.428;10.816;2023-03-31T09:59:20;20.40;47.90
32753;DHT22;19121;52.428;10.816;2023-03-31T10:01:48;20.40;47.90
32753;DHT22;19121;52.428;10.816;2023-03-31T10:04:19;20.50;47.90
32753;DHT22;19121;52.428;10.816;2023-03-31T10:06:45;20.50;48.00
32753;DHT22;19121;52.428;10.816;2023-03-31T10:09:11;20.40;48.00
32753;DHT22;19121;52.428;10.816;2023-03-31T10:11:37;20.40;47.90
32753;DHT22;19121;52.428;10.816;2023-03-31T10:14:12;20.40;47.90
32753;DHT22;19121;52.428;10.816;2023-03-31T10:16:43;20.50;48.00
32753;DHT22;19121;52.428;10.816;2023-03-31T10:21:47;20.50;48.00
32753;DHT22;19121;52.428;10.816;2023-03-31T10:24:17;20.50;48.00
32753;DHT22;19121;52.428;10.816;2023-03-31T10:26:42;20.50;47.90
32753;DHT22;19121;52.428;10.816;2023-03-31T10:29:10;20.50;48.00
32753;DHT22;19121;52.428;10.816;2023-03-31T10:31:36;20.50;48.00
32753;DHT22;19121;52.428;10.816;2023-03-31T10:34:06;20.50;48.10
32753;DHT22;19121;52.428;10.816;2023-03-31T10:36:33;20.50;48.10
32753;DHT22;19121;52.428;10.816;2023-03-31T10:38:59;20.50;48.10
32753;DHT22;19121;52.428;10.816;2023-03-31T10:41:29;20.50;48.10
32753;DHT22;19121;52.428;10.816;2023-03-31T10:43:55;20.50;48.10
32753;DHT22;19121;52.428;10.816;2023-03-31T10:46:38;20.50;48.10
32753;DHT22;19121;52.428;10.816;2023-03-31T10:49:13;20.50;48.10
32753;DHT22;19121;52.428;10.816;2023-03-31T10:51:38;20.50;48.10
32753;DHT22;19121;52.428;10.816;2023-03-31T10:54:12;20.50;48.10
32753;DHT22;19121;52.428;10.816;2023-03-31T10:56:38;20.50;48.10
32753;DHT22;19121;52.428;10.816;2023-03-31T11:09:46;20.50;48.10
32753;DHT22;19121;52.428;10.816;2023-03-31T11:12:30;20.50;48.10
32753;DHT22;19121;52.428;10.816;2023-03-31T11:15:02;20.50;48.20
32753;DHT22;19121;52.428;10.816;2023-03-31T11:17:48;20.50;48.20
32753;DHT22;19121;52.428;10.816;2023-03-31T11:20:18;20.50;48.20
32753;DHT22;19121;52.428;10.816;2023-03-31T11:25:26;20.50;48.20
32753;DHT22;19121;52.428;10.816;2023-03-31T11:30:42;20.50;48.20
32753;DHT22;19121;52.428;10.816;2023-03-31T11:41:01;20.50;48.30
32753;DHT22;19121;52.428;10.816;2023-03-31T11:43:35;20.50;48.30
32753;DHT22;19121;52.428;10.816;2023-03-31T11:46:08;20.60;48.40
32753;DHT22;19121;52.428;10.816;2023-03-31T11:53:55;20.50;48.30
32753;DHT22;19121;52.428;10.816;2023-03-31T11:56:21;20.50;48.30
32753;DHT22;19121;52.428;10.816;2023-03-31T11:58:53;20.50;48.40
32753;DHT22;19121;52.428;10.816;2023-03-31T12:01:23;20.50;48.40
32753;DHT22;19121;52.428;10.816;2023-03-31T12:06:18;20.50;48.50
32753;DHT22;19121;52.428;10.816;2023-03-31T12:11:15;20.50;48.60
32753;DHT22;19121;52.428;10.816;2023-03-31T12:13:46;20.50;48.60
32753;DHT22;19121;52.428;10.816;2023-03-31T12:16:21;20.50;48.60
32753;DHT22;19121;52.428;10.816;2023-03-31T12:18:56;20.50;48.60
32753;DHT22;19121;52.428;10.816;2023-03-31T12:21:23;20.50;48.70
32753;DHT22;19121;52.428;10.816;2023-03-31T12:23:49;20.50;48.70
32753;DHT22;19121;52.428;10.816;2023-03-31T12:26:33;20.50;48.70
32753;DHT22;19121;52.428;10.816;2023-03-31T12:29:02;20.50;48.70
32753;DHT22;19121;52.428;10.816;2023-03-31T12:31:29;20.50;48.70
32753;DHT22;19121;52.428;10.816;2023-03-31T12:34:04;20.50;48.70
32753;DHT22;19121;52.428;10.816;2023-03-31T12:39:00;20.50;48.90
32753;DHT22;19121;52.428;10.816;2023-03-31T12:49:29;20.50;49.10
32753;DHT22;19121;52.428;10.816;2023-03-31T12:52:04;20.50;49.10
32753;DHT22;19121;52.428;10.816;2023-03-31T12:59:30;20.50;49.10
32753;DHT22;19121;52.428;10.816;2023-03-31T13:02:10;20.50;49.10
32753;DHT22;19121;52.428;10.816;2023-03-31T13:04:41;20.50;49.00
32753;DHT22;19121;52.428;10.816;2023-03-31T13:09:48;20.50;49.10
32753;DHT22;19121;52.428;10.816;2023-03-31T13:12:18;20.50;49.10
32753;DHT22;19121;52.428;10.816;2023-03-31T13:14:45;20.50;49.10
32753;DHT22;19121;52.428;10.816;2023-03-31T13:17:11;20.50;49.10
32753;DHT22;19121;52.428;10.816;2023-03-31T13:19:38;20.50;49.10
32753;DHT22;19121;52.428;10.816;2023-03-31T13:22:05;20.50;49.10
32753;DHT22;19121;52.428;10.816;2023-03-31T13:24:31;20.50;49.70
32753;DHT22;19121;52.428;10.816;2023-03-31T13:26:58;20.50;49.10
32753;DHT22;19121;52.428;10.816;2023-03-31T13:29:37;20.50;49.10
32753;DHT22;19121;52.428;10.816;2023-03-31T13:34:38;20.50;49.10
32753;DHT22;19121;52.428;10.816;2023-03-31T13:39:59;20.50;49.10
32753;DHT22;19121;52.428;10.816;2023-03-31T13:50:49;20.50;49.10
32753;DHT22;19121;52.428;10.816;2023-03-31T13:55:21;20.50;49.00
32753;DHT22;19121;52.428;10.816;2023-03-31T14:11:16;20.50;49.00
32753;DHT22;19121;52.428;10.816;2023-03-31T14:13:41;20.50;49.10
32753;DHT22;19121;52.428;10.816;2023-03-31T14:16:07;20.50;49.10
32753;DHT22;19121;52.428;10.816;2023-03-31T14:18:33;20.50;49.10
32753;DHT22;19121;52.428;10.816;2023-03-31T14:23:52;20.50;49.00
32753;DHT22;19121;52.428;10.816;2023-03-31T14:26:25;20.50;49.00
32753;DHT22;19121;52.428;10.816;2023-03-31T14:31:30;20.50;49.00
32753;DHT22;19121;52.428;10.816;2023-03-31T14:39:26;20.50;48.90
32753;DHT22;19121;52.428;10.816;2023-03-31T14:41:53;20.60;49.00
32753;DHT22;19121;52.428;10.816;2023-03-31T14:44:19;20.60;49.00
32753;DHT22;19121;52.428;10.816;2023-03-31T14:46:45;20.60;48.90
32753;DHT22;19121;52.428;10.816;2023-03-31T14:49:14;20.60;48.90
32753;DHT22;19121;52.428;10.816;2023-03-31T14:51:42;20.60;48.90
32753;DHT22;19121;52.428;10.816;2023-03-31T14:54:13;20.60;48.90
32753;DHT22;19121;52.428;10.816;2023-03-31T14:56:39;20.60;48.90
32753;DHT22;19121;52.428;10.816;2023-03-31T14:59:05;20.60;48.90
32753;DHT22;19121;52.428;10.816;2023-03-31T15:01:32;20.60;48.80
32753;DHT22;19121;52.428;10.816;2023-03-31T15:04:05;20.60;48.80
32753;DHT22;19121;52.428;10.816;2023-03-31T15:06:32;20.60;48.80
32753;DHT22;19121;52.428;10.816;2023-03-31T15:08:59;20.60;48.80
32753;DHT22;19121;52.428;10.816;2023-03-31T15:11:26;20.60;48.80
32753;DHT22;19121;52.428;10.816;2023-03-31T15:13:53;20.60;48.70
32753;DHT22;19121;52.428;10.816;2023-03-31T15:16:20;20.60;48.70
32753;DHT22;19121;52.428;10.816;2023-03-31T15:18:45;20.70;48.80
32753;DHT22;19121;52.428;10.816;2023-03-31T15:21:18;20.60;48.70
32753;DHT22;19121;52.428;10.816;2023-03-31T15:23:44;20.70;48.70
32753;DHT22;19121;52.428;10.816;2023-03-31T15:26:09;20.70;48.70
32753;DHT22;19121;52.428;10.816;2023-03-31T15:28:38;20.70;48.70
32753;DHT22;19121;52.428;10.816;2023-03-31T15:31:07;20.70;48.70
32753;DHT22;19121;52.428;10.816;2023-03-31T15:33:33;20.70;48.70
32753;DHT22;19121;52.428;10.816;2023-03-31T15:36:01;20.70;48.60
32753;DHT22;19121;52.428;10.816;2023-03-31T15:38:27;20.70;48.50
32753;DHT22;19121;52.428;10.816;2023-03-31T15:40:53;20.70;48.50
32753;DHT22;19121;52.428;10.816;2023-03-31T15:43:27;20.70;48.50
32753;DHT22;19121;52.428;10.816;2023-03-31T15:45:53;20.70;48.50
32753;DHT22;19121;52.428;10.816;2023-03-31T15:50:48;20.70;48.50
32753;DHT22;19121;52.428;10.816;2023-03-31T15:53:27;20.70;48.50
32753;DHT22;19121;52.428;10.816;2023-03-31T15:55:55;20.70;48.40
32753;DHT22;19121;52.428;10.816;2023-03-31T15:58:23;20.70;48.40
32753;DHT22;19121;52.428;10.816;2023-03-31T16:01:02;20.70;48.40
32753;DHT22;19121;52.428;10.816;2023-03-31T16:03:33;20.70;48.40
32753;DHT22;19121;52.428;10.816;2023-03-31T16:06:00;20.70;48.40
32753;DHT22;19121;52.428;10.816;2023-03-31T16:10:57;20.70;48.40
32753;DHT22;19121;52.428;10.816;2023-03-31T16:13:24;20.70;48.30
32753;DHT22;19121;52.428;10.816;2023-03-31T16:15:50;20.70;48.30
32753;DHT22;19121;52.428;10.816;2023-03-31T16:20:50;20.70;48.30
32753;DHT22;19121;52.428;10.816;2023-03-31T16:23:18;20.70;48.30
32753;DHT22;19121;52.428;10.816;2023-03-31T16:25:44;20.70;48.30
32753;DHT22;19121;52.428;10.816;2023-03-31T16:28:17;20.70;48.30
32753;DHT22;19121;52.428;10.816;2023-03-31T16:30:44;20.70;48.30
32753;DHT22;19121;52.428;10.816;2023-03-31T16:33:11;20.70;48.30
32753;DHT22;19121;52.428;10.816;2023-03-31T16:35:38;20.70;48.30
32753;DHT22;19121;52.428;10.816;2023-03-31T16:38:04;20.70;48.30
32753;DHT22;19121;52.428;10.816;2023-03-31T16:40:34;20.70;48.30
32753;DHT22;19121;52.428;10.816;2023-03-31T16:43:10;20.70;48.30
32753;DHT22;19121;52.428;10.816;2023-03-31T16:45:36;20.70;48.30
32753;DHT22;19121;52.428;10.816;2023-03-31T16:48:02;20.70;48.20
32753;DHT22;19121;52.428;10.816;2023-03-31T16:50:28;20.70;48.30
32753;DHT22;19121;52.428;10.816;2023-03-31T16:52:53;20.60;48.30
32753;DHT22;19121;52.428;10.816;2023-03-31T16:55:19;20.70;48.30
32753;DHT22;19121;52.428;10.816;2023-03-31T16:57:44;20.70;48.20
32753;DHT22;19121;52.428;10.816;2023-03-31T17:00:10;20.70;48.20
32753;DHT22;19121;52.428;10.816;2023-03-31T17:02:36;20.70;48.20
32753;DHT22;19121;52.428;10.816;2023-03-31T17:05:01;20.70;48.20
32753;DHT22;19121;52.428;10.816;2023-03-31T17:07:27;20.70;48.20
32753;DHT22;19121;52.428;10.816;2023-03-31T17:09:52;20.60;48.20
32753;DHT22;19121;52.428;10.816;2023-03-31T17:12:18;20.70;48.20
32753;DHT22;19121;52.428;10.816;2023-03-31T17:14:43;20.60;48.20
32753;DHT22;19121;52.428;10.816;2023-03-31T17:17:09;20.60;48.20
32753;DHT22;19121;52.428;10.816;2023-03-31T17:19:34;20.60;48.20
32753;DHT22;19121;52.428;10.816;2023-03-31T17:22:00;20.70;48.20
32753;DHT22;19121;52.428;10.816;2023-03-31T17:24:27;20.60;48.20
32753;DHT22;19121;52.428;10.816;2023-03-31T17:26:53;20.60;48.10
32753;DHT22;19121;52.428;10.816;2023-03-31T17:29:18;20.60;48.10
32753;DHT22;19121;52.428;10.816;2023-03-31T17:31:44;20.60;48.20
32753;DHT22;19121;52.428;10.816;2023-03-31T17:34:10;20.60;48.20
32753;DHT22;19121;52.428;10.816;2023-03-31T17:36:36;20.60;48.20
32753;DHT22;19121;52.428;10.816;2023-03-31T17:39:02;20.60;48.20
32753;DHT22;19121;52.428;10.816;2023-03-31T17:41:29;20.60;48.20
32753;DHT22;19121;52.428;10.816;2023-03-31T17:43:54;20.60;48.20
32753;DHT22;19121;52.428;10.816;2023-03-31T17:46:20;20.60;48.20
32753;DHT22;19121;52.428;10.816;2023-03-31T17:48:45;20.60;48.20
32753;DHT22;19121;52.428;10.816;2023-03-31T17:51:13;20.60;48.90